sensor_id;sensor_type;location;lat;lon;timestamp;temperature;humidity
39525;DHT22;25203;50.754;6.978;2023-02-01T00:01:57;6.60;99.90
39525;DHT22;25203;50.754;6.978;2023-02-01T00:03:57;6.60;99.90
39525;DHT22;25203;50.754;6.978;2023-02-01T00:05:58;6.50;99.90
39525;DHT22;25203;50.754;6.978;2023-02-01T00:07:59;6.40;99.90
39525;DHT22;25203;50.754;6.978;2023-02-01T00:10:00;6.30;99.90
39525;DHT22;25203;50.754;6.978;2023-02-01T00:12:00;6.30;99.90
39525;DHT22;25203;50.754;6.978;2023-02-01T00:14:03;6.20;99.90
39525;DHT22;25203;50.754;6.978;2023-02-01T00:18:16;6.20;99.90
39525;DHT22;25203;50.754;6.978;2023-02-01T00:20:17;6.20;99.90
39525;DHT22;25203;50.754;6.978;2023-02-01T00:22:17;6.20;99.90
39525;DHT22;25203;50.754;6.978;2023-02-01T00:24:18;6.30;99.90
39525;DHT22;25203;50.754;6.978;2023-02-01T00:26:43;6.30;99.90
39525;DHT22;25203;50.754;6.978;2023-02-01T00:28:44;6.30;99.90
39525;DHT22;25203;50.754;6.978;2023-02-01T00:30:45;6.30;99.90
39525;DHT22;25203;50.754;6.978;2023-02-01T00:32:46;6.40;99.90
39525;DHT22;25203;50.754;6.978;2023-02-01T00:34:46;6.50;99.90
39525;DHT22;25203;50.754;6.978;2023-02-01T00:36:47;6.40;99.90
39525;DHT22;25203;50.754;6.978;2023-02-01T00:38:48;6.50;99.90
39525;DHT22;25203;50.754;6.978;2023-02-01T00:40:48;6.50;99.90
39525;DHT22;25203;50.754;6.978;2023-02-01T00:42:49;6.50;99.90
39525;DHT22;25203;50.754;6.978;2023-02-01T00:44:49;6.50;99.90
39525;DHT22;25203;50.754;6.978;2023-02-01T00:46:50;6.50;99.90
39525;DHT22;25203;50.754;6.978;2023-02-01T00:48:51;6.60;99.90
39525;DHT22;25203;50.754;6.978;2023-02-01T00:50:51;6.60;99.90
39525;DHT22;25203;50.754;6.978;2023-02-01T00:52:52;6.60;99.90
39525;DHT22;25203;50.754;6.978;2023-02-01T00:54:53;6.50;99.90
39525;DHT22;25203;50.754;6.978;2023-02-01T00:56:53;6.50;99.90
39525;DHT22;25203;50.754;6.978;2023-02-01T00:58:54;6.50;99.90
39525;DHT22;25203;50.754;6.978;2023-02-01T01:03:06;6.50;99.90
39525;DHT22;25203;50.754;6.978;2023-02-01T01:05:18;6.50;99.90
39525;DHT22;25203;50.754;6.978;2023-02-01T01:07:18;6.40;99.90
39525;DHT22;25203;50.754;6.978;2023-02-01T01:09:19;6.40;99.90
39525;DHT22;25203;50.754;6.978;2023-02-01T01:11:24;6.40;99.90
39525;DHT22;25203;50.754;6.978;2023-02-01T01:13:25;6.40;99.90
39525;DHT22;25203;50.754;6.978;2023-02-01T01:15:26;6.30;99.90
39525;DHT22;25203;50.754;6.978;2023-02-01T01:17:26;6.30;99.90
39525;DHT22;25203;50.754;6.978;2023-02-01T01:19:27;6.30;99.90
39525;DHT22;25203;50.754;6.978;2023-02-01T01:21:28;6.30;99.90
39525;DHT22;25203;50.754;6.978;2023-02-01T01:23:29;6.30;99.90
39525;DHT22;25203;50.754;6.978;2023-02-01T01:25:30;6.30;99.90
39525;DHT22;25203;50.754;6.978;2023-02-01T01:27:30;6.30;99.90
39525;DHT22;25203;50.754;6.978;2023-02-01T01:29:31;6.30;99.90
39525;DHT22;25203;50.754;6.978;2023-02-01T01:31:31;6.30;99.90
39525;DHT22;25203;50.754;6.978;2023-02-01T01:33:32;6.30;99.90
39525;DHT22;25203;50.754;6.978;2023-02-01T01:35:33;6.30;99.90
39525;DHT22;25203;50.754;6.978;2023-02-01T01:37:34;6.30;99.90
39525;DHT22;25203;50.754;6.978;2023-02-01T01:39:35;6.30;99.90
39525;DHT22;25203;50.754;6.978;2023-02-01T01:41:36;6.20;99.90
39525;DHT22;25203;50.754;6.978;2023-02-01T01:43:54;6.20;99.90
39525;DHT22;25203;50.754;6.978;2023-02-01T01:45:55;6.20;99.90
39525;DHT22;25203;50.754;6.978;2023-02-01T01:47:56;6.20;99.90
39525;DHT22;25203;50.754;6.978;2023-02-01T01:49:58;6.20;99.90
39525;DHT22;25203;50.754;6.978;2023-02-01T01:52:01;6.20;99.90
39525;DHT22;25203;50.754;6.978;2023-02-01T01:54:11;6.30;99.90
39525;DHT22;25203;50.754;6.978;2023-02-01T01:56:14;6.30;99.90
39525;DHT22;25203;50.754;6.978;2023-02-01T01:58:18;6.20;99.90
39525;DHT22;25203;50.754;6.978;2023-02-01T02:00:20;6.20;99.90
39525;DHT22;25203;50.754;6.978;2023-02-01T02:02:21;6.20;99.90
39525;DHT22;25203;50.754;6.978;2023-02-01T02:04:22;6.20;99.90
39525;DHT22;25203;50.754;6.978;2023-02-01T02:08:48;6.20;99.90
39525;DHT22;25203;50.754;6.978;2023-02-01T02:10:48;6.20;99.90
39525;DHT22;25203;50.754;6.978;2023-02-01T02:13:02;6.20;99.90
39525;DHT22;25203;50.754;6.978;2023-02-01T02:15:03;6.20;99.90
39525;DHT22;25203;50.754;6.978;2023-02-01T02:24:36;6.20;99.90
39525;DHT22;25203;50.754;6.978;2023-02-01T02:29:14;6.10;99.90
39525;DHT22;25203;50.754;6.978;2023-02-01T02:36:31;6.20;99.90
39525;DHT22;25203;50.754;6.978;2023-02-01T02:39:08;6.30;99.90
39525;DHT22;25203;50.754;6.978;2023-02-01T02:41:37;6.30;99.90
39525;DHT22;25203;50.754;6.978;2023-02-01T02:43:59;6.30;99.90
39525;DHT22;25203;50.754;6.978;2023-02-01T02:46:30;6.30;99.90
39525;DHT22;25203;50.754;6.978;2023-02-01T02:51:14;6.30;99.90
39525;DHT22;25203;50.754;6.978;2023-02-01T02:53:39;6.30;99.90
39525;DHT22;25203;50.754;6.978;2023-02-01T02:56:04;6.30;99.90
39525;DHT22;25203;50.754;6.978;2023-02-01T02:58:24;6.40;99.90
39525;DHT22;25203;50.754;6.978;2023-02-01T03:00:44;6.40;99.90
39525;DHT22;25203;50.754;6.978;2023-02-01T03:03:03;6.40;99.90
39525;DHT22;25203;50.754;6.978;2023-02-01T03:05:22;6.50;99.90
39525;DHT22;25203;50.754;6.978;2023-02-01T03:09:47;6.50;99.90
39525;DHT22;25203;50.754;6.978;2023-02-01T03:11:51;6.50;99.90
39525;DHT22;25203;50.754;6.978;2023-02-01T03:14:14;6.50;99.90
39525;DHT22;25203;50.754;6.978;2023-02-01T03:20:32;6.40;99.90
39525;DHT22;25203;50.754;6.978;2023-02-01T03:22:33;6.40;99.90
39525;DHT22;25203;50.754;6.978;2023-02-01T03:24:40;6.40;99.90
39525;DHT22;25203;50.754;6.978;2023-02-01T03:26:45;6.40;99.90
39525;DHT22;25203;50.754;6.978;2023-02-01T03:28:54;6.40;99.90
39525;DHT22;25203;50.754;6.978;2023-02-01T03:30:56;6.40;99.90
39525;DHT22;25203;50.754;6.978;2023-02-01T03:33:00;6.40;99.90
39525;DHT22;25203;50.754;6.978;2023-02-01T03:35:02;6.40;99.90
39525;DHT22;25203;50.754;6.978;2023-02-01T03:37:09;6.40;99.90
39525;DHT22;25203;50.754;6.978;2023-02-01T03:41:41;6.40;99.90
39525;DHT22;25203;50.754;6.978;2023-02-01T03:45:56;6.50;99.90
39525;DHT22;25203;50.754;6.978;2023-02-01T03:48:00;6.40;99.90
39525;DHT22;25203;50.754;6.978;2023-02-01T03:50:06;6.50;99.90
39525;DHT22;25203;50.754;6.978;2023-02-01T03:52:13;6.40;99.90
39525;DHT22;25203;50.754;6.978;2023-02-01T03:54:15;6.50;99.90
39525;DHT22;25203;50.754;6.978;2023-02-01T03:56:18;6.50;99.90
39525;DHT22;25203;50.754;6.978;2023-02-01T03:58:23;6.50;99.90
39525;DHT22;25203;50.754;6.978;2023-02-01T04:00:25;6.40;99.90
39525;DHT22;25203;50.754;6.978;2023-02-01T04:02:26;6.40;99.90
39525;DHT22;25203;50.754;6.978;2023-02-01T04:04:26;6.40;99.90
39525;DHT22;25203;50.754;6.978;2023-02-01T04:06:27;6.40;99.90
39525;DHT22;25203;50.754;6.978;2023-02-01T04:08:27;6.40;99.90
39525;DHT22;25203;50.754;6.978;2023-02-01T04:10:28;6.40;99.90
39525;DHT22;25203;50.754;6.978;2023-02-01T04:12:29;6.40;99.90
39525;DHT22;25203;50.754;6.978;2023-02-01T04:14:29;6.40;99.90
39525;DHT22;25203;50.754;6.978;2023-02-01T04:16:31;6.40;99.90
39525;DHT22;25203;50.754;6.978;2023-02-01T04:18:32;6.30;99.90
39525;DHT22;25203;50.754;6.978;2023-02-01T04:20:32;6.30;99.90
39525;DHT22;25203;50.754;6.978;2023-02-01T04:22:33;6.20;99.90
39525;DHT22;25203;50.754;6.978;2023-02-01T04:24:33;6.30;99.90
39525;DHT22;25203;50.754;6.978;2023-02-01T04:26:34;6.30;99.90
39525;DHT22;25203;50.754;6.978;2023-02-01T04:28:35;6.20;99.90
39525;DHT22;25203;50.754;6.978;2023-02-01T04:30:35;6.20;99.90
39525;DHT22;25203;50.754;6.978;2023-02-01T04:32:36;6.10;99.90
39525;DHT22;25203;50.754;6.978;2023-02-01T04:34:37;6.10;99.90
39525;DHT22;25203;50.754;6.978;2023-02-01T04:36:38;6.00;99.90
39525;DHT22;25203;50.754;6.978;2023-02-01T04:38:38;6.00;99.90
39525;DHT22;25203;50.754;6.978;2023-02-01T04:40:39;5.90;99.90
39525;DHT22;25203;50.754;6.978;2023-02-01T04:42:39;5.90;99.90
39525;DHT22;25203;50.754;6.978;2023-02-01T04:44:40;5.80;99.90
39525;DHT22;25203;50.754;6.978;2023-02-01T04:46:42;5.80;99.90
39525;DHT22;25203;50.754;6.978;2023-02-01T04:48:43;5.80;99.90
39525;DHT22;25203;50.754;6.978;2023-02-01T04:50:46;5.80;99.90
39525;DHT22;25203;50.754;6.978;2023-02-01T04:52:48;5.80;99.90
39525;DHT22;25203;50.754;6.978;2023-02-01T04:54:49;5.80;99.90
39525;DHT22;25203;50.754;6.978;2023-02-01T04:56:49;5.70;99.90
39525;DHT22;25203;50.754;6.978;2023-02-01T04:58:50;5.80;99.90
39525;DHT22;25203;50.754;6.978;2023-02-01T05:00:50;5.80;99.90
39525;DHT22;25203;50.754;6.978;2023-02-01T05:02:52;5.80;99.90
39525;DHT22;25203;50.754;6.978;2023-02-01T05:04:52;5.80;99.90
39525;DHT22;25203;50.754;6.978;2023-02-01T05:06:54;5.70;99.90
39525;DHT22;25203;50.754;6.978;2023-02-01T05:08:55;5.70;99.90
39525;DHT22;25203;50.754;6.978;2023-02-01T05:10:55;5.60;99.90
39525;DHT22;25203;50.754;6.978;2023-02-01T05:12:56;5.60;99.90
39525;DHT22;25203;50.754;6.978;2023-02-01T05:15:15;5.50;99.90
39525;DHT22;25203;50.754;6.978;2023-02-01T05:17:16;5.50;99.90
39525;DHT22;25203;50.754;6.978;2023-02-01T05:19:16;5.50;99.90
39525;DHT22;25203;50.754;6.978;2023-02-01T05:21:17;5.50;99.90
39525;DHT22;25203;50.754;6.978;2023-02-01T05:23:17;5.50;99.90
39525;DHT22;25203;50.754;6.978;2023-02-01T05:25:18;5.40;99.90
39525;DHT22;25203;50.754;6.978;2023-02-01T05:27:19;5.40;99.90
39525;DHT22;25203;50.754;6.978;2023-02-01T05:29:20;5.40;99.90
39525;DHT22;25203;50.754;6.978;2023-02-01T05:31:21;5.50;99.90
39525;DHT22;25203;50.754;6.978;2023-02-01T05:33:22;5.50;99.90
39525;DHT22;25203;50.754;6.978;2023-02-01T05:35:23;5.50;99.90
39525;DHT22;25203;50.754;6.978;2023-02-01T05:37:23;5.40;99.90
39525;DHT22;25203;50.754;6.978;2023-02-01T05:39:24;5.40;99.90
39525;DHT22;25203;50.754;6.978;2023-02-01T05:41:25;5.40;99.90
39525;DHT22;25203;50.754;6.978;2023-02-01T05:43:25;5.30;99.90
39525;DHT22;25203;50.754;6.978;2023-02-01T05:45:26;5.30;99.90
39525;DHT22;25203;50.754;6.978;2023-02-01T05:47:26;5.30;99.90
39525;DHT22;25203;50.754;6.978;2023-02-01T05:49:27;5.30;99.90
39525;DHT22;25203;50.754;6.978;2023-02-01T05:51:28;5.30;99.90
39525;DHT22;25203;50.754;6.978;2023-02-01T05:53:28;5.20;99.90
39525;DHT22;25203;50.754;6.978;2023-02-01T05:55:29;5.20;99.90
39525;DHT22;25203;50.754;6.978;2023-02-01T05:57:29;5.20;99.90
39525;DHT22;25203;50.754;6.978;2023-02-01T05:59:30;5.20;99.90
39525;DHT22;25203;50.754;6.978;2023-02-01T06:01:31;5.20;99.90
39525;DHT22;25203;50.754;6.978;2023-02-01T06:03:31;5.20;99.90
39525;DHT22;25203;50.754;6.978;2023-02-01T06:05:32;5.20;99.90
39525;DHT22;25203;50.754;6.978;2023-02-01T06:07:33;5.20;99.90
39525;DHT22;25203;50.754;6.978;2023-02-01T06:09:34;5.20;99.90
39525;DHT22;25203;50.754;6.978;2023-02-01T06:11:35;5.20;99.90
39525;DHT22;25203;50.754;6.978;2023-02-01T06:13:35;5.20;99.90
39525;DHT22;25203;50.754;6.978;2023-02-01T06:15:37;5.20;99.90
39525;DHT22;25203;50.754;6.978;2023-02-01T06:17:38;5.20;99.90
39525;DHT22;25203;50.754;6.978;2023-02-01T06:19:41;5.30;99.90
39525;DHT22;25203;50.754;6.978;2023-02-01T06:21:44;5.30;99.90
39525;DHT22;25203;50.754;6.978;2023-02-01T06:23:45;5.30;99.90
39525;DHT22;25203;50.754;6.978;2023-02-01T06:25:45;5.20;99.90
39525;DHT22;25203;50.754;6.978;2023-02-01T06:27:46;5.20;99.90
39525;DHT22;25203;50.754;6.978;2023-02-01T06:29:46;5.20;99.90
39525;DHT22;25203;50.754;6.978;2023-02-01T06:31:47;5.20;99.90
39525;DHT22;25203;50.754;6.978;2023-02-01T06:33:47;5.30;99.90
39525;DHT22;25203;50.754;6.978;2023-02-01T06:35:49;5.20;99.90
39525;DHT22;25203;50.754;6.978;2023-02-01T06:37:56;5.20;99.90
39525;DHT22;25203;50.754;6.978;2023-02-01T06:39:58;5.20;99.90
39525;DHT22;25203;50.754;6.978;2023-02-01T06:41:59;5.20;99.90
39525;DHT22;25203;50.754;6.978;2023-02-01T06:43:59;5.20;99.90
39525;DHT22;25203;50.754;6.978;2023-02-01T06:46:06;5.20;99.90
39525;DHT22;25203;50.754;6.978;2023-02-01T06:48:07;5.20;99.90
39525;DHT22;25203;50.754;6.978;2023-02-01T06:50:08;5.20;99.90
39525;DHT22;25203;50.754;6.978;2023-02-01T06:52:09;5.20;99.90
39525;DHT22;25203;50.754;6.978;2023-02-01T06:54:09;5.20;99.90
39525;DHT22;25203;50.754;6.978;2023-02-01T06:56:10;5.10;99.90
39525;DHT22;25203;50.754;6.978;2023-02-01T06:58:10;5.10;99.90
39525;DHT22;25203;50.754;6.978;2023-02-01T07:00:11;5.10;99.90
39525;DHT22;25203;50.754;6.978;2023-02-01T07:02:12;5.10;99.90
39525;DHT22;25203;50.754;6.978;2023-02-01T07:04:13;5.10;99.90
39525;DHT22;25203;50.754;6.978;2023-02-01T07:06:13;5.10;99.90
39525;DHT22;25203;50.754;6.978;2023-02-01T07:08:14;5.00;99.90
39525;DHT22;25203;50.754;6.978;2023-02-01T07:10:15;5.00;99.90
39525;DHT22;25203;50.754;6.978;2023-02-01T07:12:16;5.00;99.90
39525;DHT22;25203;50.754;6.978;2023-02-01T07:14:16;5.00;99.90
39525;DHT22;25203;50.754;6.978;2023-02-01T07:16:18;5.10;99.90
39525;DHT22;25203;50.754;6.978;2023-02-01T07:18:19;5.00;99.90
39525;DHT22;25203;50.754;6.978;2023-02-01T07:20:20;5.00;99.90
39525;DHT22;25203;50.754;6.978;2023-02-01T07:22:20;5.00;99.90
39525;DHT22;25203;50.754;6.978;2023-02-01T07:24:21;5.10;99.90
39525;DHT22;25203;50.754;6.978;2023-02-01T07:26:22;5.00;99.90
39525;DHT22;25203;50.754;6.978;2023-02-01T07:28:23;5.10;99.90
39525;DHT22;25203;50.754;6.978;2023-02-01T07:30:23;5.10;99.90
39525;DHT22;25203;50.754;6.978;2023-02-01T07:32:26;5.10;99.90
39525;DHT22;25203;50.754;6.978;2023-02-01T07:34:26;5.10;99.90
39525;DHT22;25203;50.754;6.978;2023-02-01T07:36:27;5.20;99.90
39525;DHT22;25203;50.754;6.978;2023-02-01T07:38:28;5.20;99.90
39525;DHT22;25203;50.754;6.978;2023-02-01T07:40:29;5.30;99.90
39525;DHT22;25203;50.754;6.978;2023-02-01T07:42:30;5.30;99.90
39525;DHT22;25203;50.754;6.978;2023-02-01T07:44:31;5.30;99.90
39525;DHT22;25203;50.754;6.978;2023-02-01T07:46:32;5.40;99.90
39525;DHT22;25203;50.754;6.978;2023-02-01T07:48:33;5.40;99.90
39525;DHT22;25203;50.754;6.978;2023-02-01T07:50:36;5.40;99.90
39525;DHT22;25203;50.754;6.978;2023-02-01T07:52:37;5.50;99.90
39525;DHT22;25203;50.754;6.978;2023-02-01T07:54:37;5.50;99.90
39525;DHT22;25203;50.754;6.978;2023-02-01T07:56:38;5.60;99.90
39525;DHT22;25203;50.754;6.978;2023-02-01T07:58:39;5.60;99.90
39525;DHT22;25203;50.754;6.978;2023-02-01T08:00:39;5.70;99.90
39525;DHT22;25203;50.754;6.978;2023-02-01T08:02:59;5.70;99.90
39525;DHT22;25203;50.754;6.978;2023-02-01T08:05:00;5.60;99.90
39525;DHT22;25203;50.754;6.978;2023-02-01T08:07:01;5.60;99.90
39525;DHT22;25203;50.754;6.978;2023-02-01T08:09:02;5.60;99.90
39525;DHT22;25203;50.754;6.978;2023-02-01T08:11:05;5.60;99.90
39525;DHT22;25203;50.754;6.978;2023-02-01T08:13:05;5.70;99.90
39525;DHT22;25203;50.754;6.978;2023-02-01T08:15:06;5.70;99.90
39525;DHT22;25203;50.754;6.978;2023-02-01T08:17:07;5.70;99.90
39525;DHT22;25203;50.754;6.978;2023-02-01T08:19:08;5.70;99.90
39525;DHT22;25203;50.754;6.978;2023-02-01T08:21:14;5.80;99.90
39525;DHT22;25203;50.754;6.978;2023-02-01T08:23:15;5.80;99.90
39525;DHT22;25203;50.754;6.978;2023-02-01T08:25:15;5.80;99.90
39525;DHT22;25203;50.754;6.978;2023-02-01T08:27:16;5.80;99.90
39525;DHT22;25203;50.754;6.978;2023-02-01T08:29:17;5.90;99.90
39525;DHT22;25203;50.754;6.978;2023-02-01T08:31:19;5.90;99.90
39525;DHT22;25203;50.754;6.978;2023-02-01T08:33:21;5.90;99.90
39525;DHT22;25203;50.754;6.978;2023-02-01T08:35:22;5.90;99.90
39525;DHT22;25203;50.754;6.978;2023-02-01T08:37:22;5.80;99.90
39525;DHT22;25203;50.754;6.978;2023-02-01T08:39:23;5.90;99.90
39525;DHT22;25203;50.754;6.978;2023-02-01T08:41:26;5.90;99.90
39525;DHT22;25203;50.754;6.978;2023-02-01T08:43:27;5.90;99.90
39525;DHT22;25203;50.754;6.978;2023-02-01T08:45:29;6.00;99.90
39525;DHT22;25203;50.754;6.978;2023-02-01T08:47:30;6.00;99.90
39525;DHT22;25203;50.754;6.978;2023-02-01T08:49:31;6.00;99.90
39525;DHT22;25203;50.754;6.978;2023-02-01T08:51:32;6.00;99.90
39525;DHT22;25203;50.754;6.978;2023-02-01T08:53:32;6.00;99.90
39525;DHT22;25203;50.754;6.978;2023-02-01T08:55:33;6.20;99.90
39525;DHT22;25203;50.754;6.978;2023-02-01T08:57:34;6.20;99.90
39525;DHT22;25203;50.754;6.978;2023-02-01T08:59:35;6.30;99.90
39525;DHT22;25203;50.754;6.978;2023-02-01T09:01:35;6.30;99.90
39525;DHT22;25203;50.754;6.978;2023-02-01T09:03:36;6.30;99.90
39525;DHT22;25203;50.754;6.978;2023-02-01T09:05:38;6.20;99.90
39525;DHT22;25203;50.754;6.978;2023-02-01T09:07:38;6.20;99.90
39525;DHT22;25203;50.754;6.978;2023-02-01T09:09:39;6.30;99.90
39525;DHT22;25203;50.754;6.978;2023-02-01T09:11:40;6.30;99.90
39525;DHT22;25203;50.754;6.978;2023-02-01T09:13:40;6.40;99.90
39525;DHT22;25203;50.754;6.978;2023-02-01T09:15:42;6.40;99.90
39525;DHT22;25203;50.754;6.978;2023-02-01T09:17:42;6.40;99.90
39525;DHT22;25203;50.754;6.978;2023-02-01T09:19:43;6.40;99.90
39525;DHT22;25203;50.754;6.978;2023-02-01T09:21:44;6.40;99.90
39525;DHT22;25203;50.754;6.978;2023-02-01T09:23:44;6.40;99.90
39525;DHT22;25203;50.754;6.978;2023-02-01T09:25:45;6.50;99.90
39525;DHT22;25203;50.754;6.978;2023-02-01T09:27:46;6.60;99.90
39525;DHT22;25203;50.754;6.978;2023-02-01T09:29:46;6.60;99.90
39525;DHT22;25203;50.754;6.978;2023-02-01T09:31:52;6.60;99.90
39525;DHT22;25203;50.754;6.978;2023-02-01T09:33:53;6.70;99.90
39525;DHT22;25203;50.754;6.978;2023-02-01T09:36:02;6.60;99.90
39525;DHT22;25203;50.754;6.978;2023-02-01T09:38:03;6.70;99.90
39525;DHT22;25203;50.754;6.978;2023-02-01T09:40:04;6.60;99.90
39525;DHT22;25203;50.754;6.978;2023-02-01T09:46:41;6.50;99.90
39525;DHT22;25203;50.754;6.978;2023-02-01T09:48:43;6.50;99.90
39525;DHT22;25203;50.754;6.978;2023-02-01T09:50:48;6.60;99.90
39525;DHT22;25203;50.754;6.978;2023-02-01T09:52:57;6.60;99.90
39525;DHT22;25203;50.754;6.978;2023-02-01T09:55:16;6.60;99.90
39525;DHT22;25203;50.754;6.978;2023-02-01T09:57:25;6.70;99.90
39525;DHT22;25203;50.754;6.978;2023-02-01T09:59:39;6.80;99.90
39525;DHT22;25203;50.754;6.978;2023-02-01T10:01:41;7.00;99.90
39525;DHT22;25203;50.754;6.978;2023-02-01T10:03:43;7.30;99.90
39525;DHT22;25203;50.754;6.978;2023-02-01T10:09:14;7.40;99.90
39525;DHT22;25203;50.754;6.978;2023-02-01T10:11:02;7.30;99.90
39525;DHT22;25203;50.754;6.978;2023-02-01T10:15:28;7.30;99.90
39525;DHT22;25203;50.754;6.978;2023-02-01T10:22:49;8.40;99.90
39525;DHT22;25203;50.754;6.978;2023-02-01T10:27:19;8.40;99.90
39525;DHT22;25203;50.754;6.978;2023-02-01T10:29:23;8.50;99.90
39525;DHT22;25203;50.754;6.978;2023-02-01T10:31:28;8.30;99.90
39525;DHT22;25203;50.754;6.978;2023-02-01T10:33:34;8.40;99.90
39525;DHT22;25203;50.754;6.978;2023-02-01T10:35:36;8.70;99.90
39525;DHT22;25203;50.754;6.978;2023-02-01T10:37:41;8.40;99.90
39525;DHT22;25203;50.754;6.978;2023-02-01T10:39:42;8.70;99.90
39525;DHT22;25203;50.754;6.978;2023-02-01T10:41:43;9.00;99.90
39525;DHT22;25203;50.754;6.978;2023-02-01T10:43:44;9.40;99.90
39525;DHT22;25203;50.754;6.978;2023-02-01T10:45:46;9.20;99.90
39525;DHT22;25203;50.754;6.978;2023-02-01T10:47:49;9.20;99.90
39525;DHT22;25203;50.754;6.978;2023-02-01T10:52:20;9.30;99.90
39525;DHT22;25203;50.754;6.978;2023-02-01T10:54:35;9.40;99.90
39525;DHT22;25203;50.754;6.978;2023-02-01T10:56:38;9.00;99.90
39525;DHT22;25203;50.754;6.978;2023-02-01T10:58:47;8.90;99.90
39525;DHT22;25203;50.754;6.978;2023-02-01T11:01:08;9.30;99.90
39525;DHT22;25203;50.754;6.978;2023-02-01T11:03:40;9.00;99.90
39525;DHT22;25203;50.754;6.978;2023-02-01T11:05:46;8.50;99.90
39525;DHT22;25203;50.754;6.978;2023-02-01T11:07:49;8.40;99.90
39525;DHT22;25203;50.754;6.978;2023-02-01T11:09:53;8.50;99.90
39525;DHT22;25203;50.754;6.978;2023-02-01T11:11:59;8.80;99.90
39525;DHT22;25203;50.754;6.978;2023-02-01T11:14:13;8.60;99.90
39525;DHT22;25203;50.754;6.978;2023-02-01T11:16:14;8.50;99.90
39525;DHT22;25203;50.754;6.978;2023-02-01T11:18:18;8.70;99.90
39525;DHT22;25203;50.754;6.978;2023-02-01T11:22:32;8.30;99.90
39525;DHT22;25203;50.754;6.978;2023-02-01T11:24:35;8.10;99.90
39525;DHT22;25203;50.754;6.978;2023-02-01T11:26:40;7.90;99.90
39525;DHT22;25203;50.754;6.978;2023-02-01T11:28:55;7.90;99.90
39525;DHT22;25203;50.754;6.978;2023-02-01T11:31:00;7.80;99.90
39525;DHT22;25203;50.754;6.978;2023-02-01T11:33:04;7.80;99.90
39525;DHT22;25203;50.754;6.978;2023-02-01T11:35:07;7.90;99.90
39525;DHT22;25203;50.754;6.978;2023-02-01T11:39:33;7.80;99.90
39525;DHT22;25203;50.754;6.978;2023-02-01T11:41:34;8.10;99.90
39525;DHT22;25203;50.754;6.978;2023-02-01T11:43:35;8.40;99.90
39525;DHT22;25203;50.754;6.978;2023-02-01T11:45:36;8.30;99.90
39525;DHT22;25203;50.754;6.978;2023-02-01T11:47:40;8.10;99.90
39525;DHT22;25203;50.754;6.978;2023-02-01T11:49:41;8.10;99.90
39525;DHT22;25203;50.754;6.978;2023-02-01T11:52:15;8.20;99.90
39525;DHT22;25203;50.754;6.978;2023-02-01T11:54:38;8.70;99.90
39525;DHT22;25203;50.754;6.978;2023-02-01T11:57:17;8.60;99.90
39525;DHT22;25203;50.754;6.978;2023-02-01T12:05:40;7.80;99.90
39525;DHT22;25203;50.754;6.978;2023-02-01T12:09:58;7.70;99.90
39525;DHT22;25203;50.754;6.978;2023-02-01T12:12:08;7.70;99.90
39525;DHT22;25203;50.754;6.978;2023-02-01T12:16:35;7.70;99.90
39525;DHT22;25203;50.754;6.978;2023-02-01T12:21:02;7.90;99.90
39525;DHT22;25203;50.754;6.978;2023-02-01T12:27:58;7.90;99.90
39525;DHT22;25203;50.754;6.978;2023-02-01T12:35:12;7.80;99.90
39525;DHT22;25203;50.754;6.978;2023-02-01T12:39:39;7.70;99.90
39525;DHT22;25203;50.754;6.978;2023-02-01T12:41:43;7.70;99.90
39525;DHT22;25203;50.754;6.978;2023-02-01T12:43:59;7.80;99.90
39525;DHT22;25203;50.754;6.978;2023-02-01T12:46:14;7.90;99.90
39525;DHT22;25203;50.754;6.978;2023-02-01T12:50:43;7.90;99.90
39525;DHT22;25203;50.754;6.978;2023-02-01T12:52:49;7.90;99.90
39525;DHT22;25203;50.754;6.978;2023-02-01T12:55:41;7.90;99.90
39525;DHT22;25203;50.754;6.978;2023-02-01T13:02:49;8.00;99.90
39525;DHT22;25203;50.754;6.978;2023-02-01T13:11:37;8.30;99.90
39525;DHT22;25203;50.754;6.978;2023-02-01T13:14:07;8.30;99.90
39525;DHT22;25203;50.754;6.978;2023-02-01T13:16:31;8.20;99.90
39525;DHT22;25203;50.754;6.978;2023-02-01T13:18:36;8.10;99.90
39525;DHT22;25203;50.754;6.978;2023-02-01T13:20:58;8.00;99.90
39525;DHT22;25203;50.754;6.978;2023-02-01T13:23:08;8.00;99.90
39525;DHT22;25203;50.754;6.978;2023-02-01T13:27:28;7.80;99.90
39525;DHT22;25203;50.754;6.978;2023-02-01T13:29:32;7.80;99.90
39525;DHT22;25203;50.754;6.978;2023-02-01T13:34:55;7.70;99.90
39525;DHT22;25203;50.754;6.978;2023-02-01T13:37:10;7.60;99.90
39525;DHT22;25203;50.754;6.978;2023-02-01T13:39:35;7.60;99.90
39525;DHT22;25203;50.754;6.978;2023-02-01T13:41:50;7.60;99.90
39525;DHT22;25203;50.754;6.978;2023-02-01T13:44:09;7.50;99.90
39525;DHT22;25203;50.754;6.978;2023-02-01T13:46:11;7.50;99.90
39525;DHT22;25203;50.754;6.978;2023-02-01T13:48:25;7.40;99.90
39525;DHT22;25203;50.754;6.978;2023-02-01T13:50:35;7.40;99.90
39525;DHT22;25203;50.754;6.978;2023-02-01T13:52:42;7.40;99.90
39525;DHT22;25203;50.754;6.978;2023-02-01T13:54:43;7.40;99.90
39525;DHT22;25203;50.754;6.978;2023-02-01T13:56:44;7.40;99.90
39525;DHT22;25203;50.754;6.978;2023-02-01T13:58:46;7.30;99.90
39525;DHT22;25203;50.754;6.978;2023-02-01T14:00:49;7.40;99.90
39525;DHT22;25203;50.754;6.978;2023-02-01T14:05:01;7.50;99.90
39525;DHT22;25203;50.754;6.978;2023-02-01T14:07:02;7.60;99.90
39525;DHT22;25203;50.754;6.978;2023-02-01T14:11:32;7.60;99.90
39525;DHT22;25203;50.754;6.978;2023-02-01T14:13:40;7.60;99.90
39525;DHT22;25203;50.754;6.978;2023-02-01T14:18:02;7.70;99.90
39525;DHT22;25203;50.754;6.978;2023-02-01T14:20:42;7.70;99.90
39525;DHT22;25203;50.754;6.978;2023-02-01T14:22:45;7.70;99.90
39525;DHT22;25203;50.754;6.978;2023-02-01T14:24:52;7.70;99.90
39525;DHT22;25203;50.754;6.978;2023-02-01T14:27:18;7.70;99.90
39525;DHT22;25203;50.754;6.978;2023-02-01T14:33:33;7.70;99.90
39525;DHT22;25203;50.754;6.978;2023-02-01T14:35:34;7.70;99.90
39525;DHT22;25203;50.754;6.978;2023-02-01T14:37:37;7.80;99.90
39525;DHT22;25203;50.754;6.978;2023-02-01T14:41:46;7.90;99.90
39525;DHT22;25203;50.754;6.978;2023-02-01T14:46:03;8.00;99.90
39525;DHT22;25203;50.754;6.978;2023-02-01T14:52:15;8.00;99.90
39525;DHT22;25203;50.754;6.978;2023-02-01T14:54:18;8.00;99.90
39525;DHT22;25203;50.754;6.978;2023-02-01T14:56:19;8.00;99.90
39525;DHT22;25203;50.754;6.978;2023-02-01T15:00:35;8.00;99.90
39525;DHT22;25203;50.754;6.978;2023-02-01T15:02:36;8.00;99.90
39525;DHT22;25203;50.754;6.978;2023-02-01T15:04:43;8.00;99.90
39525;DHT22;25203;50.754;6.978;2023-02-01T15:06:44;8.00;99.90
39525;DHT22;25203;50.754;6.978;2023-02-01T15:08:46;8.00;99.90
39525;DHT22;25203;50.754;6.978;2023-02-01T15:10:50;8.00;99.90
39525;DHT22;25203;50.754;6.978;2023-02-01T15:12:52;8.00;99.90
39525;DHT22;25203;50.754;6.978;2023-02-01T15:15:28;8.00;99.90
39525;DHT22;25203;50.754;6.978;2023-02-01T15:17:32;8.10;99.90
39525;DHT22;25203;50.754;6.978;2023-02-01T15:19:34;8.00;99.90
39525;DHT22;25203;50.754;6.978;2023-02-01T15:21:43;8.10;99.90
39525;DHT22;25203;50.754;6.978;2023-02-01T15:23:46;8.10;99.90
39525;DHT22;25203;50.754;6.978;2023-02-01T15:25:49;8.10;99.90